createdAt,value
2018-03-11T00:00:44.240Z,12.04
2018-03-11T00:01:44.191Z,12.08
2018-03-11T00:02:44.251Z,12.03
2018-03-11T00:03:44.104Z,12.05
2018-03-11T00:04:44.365Z,12.01
2018-03-11T00:05:44.019Z,12.08
2018-03-11T00:06:43.978Z,12.19
2018-03-11T00:07:43.935Z,12.22
2018-03-11T00:08:43.892Z,12.21
2018-03-11T00:09:43.852Z,12.22
2018-03-11T00:10:43.808Z,12.21
2018-03-11T00:11:44.067Z,12.22
2018-03-11T00:12:43.729Z,12.21
2018-03-11T00:13:43.782Z,12.25
2018-03-11T00:14:43.687Z,12.26
2018-03-11T00:15:43.600Z,12.21
2018-03-11T00:16:43.556Z,12.21
2018-03-11T00:17:43.514Z,12.22
2018-03-11T00:18:43.772Z,12.21
2018-03-11T00:19:43.481Z,12.26
2018-03-11T00:20:43.391Z,12.23
2018-03-11T00:21:43.345Z,12.21
2018-03-11T00:22:43.304Z,12.25
2018-03-11T00:23:43.262Z,12.21
2018-03-11T00:24:43.519Z,12.37
2018-03-11T00:25:43.178Z,12.37
2018-03-11T00:26:43.140Z,12.31
2018-03-11T00:27:43.096Z,12.34
2018-03-11T00:28:43.050Z,12.33
2018-03-11T00:29:43.013Z,12.43
2018-03-11T00:30:43.267Z,12.43
2018-03-11T00:31:42.922Z,12.46
2018-03-11T00:32:42.881Z,12.43
2018-03-11T00:33:42.844Z,12.44
2018-03-11T00:34:42.845Z,12.49
2018-03-11T00:35:42.956Z,12.55
2018-03-11T00:36:43.013Z,12.56
2018-03-11T00:37:42.669Z,12.56
2018-03-11T00:38:42.630Z,12.56
2018-03-11T00:39:42.586Z,12.56
2018-03-11T00:40:42.543Z,12.55
2018-03-11T00:41:42.607Z,12.56
2018-03-11T00:42:42.761Z,12.52
2018-03-11T00:43:42.419Z,12.52
2018-03-11T00:44:42.376Z,12.48
2018-03-11T00:45:42.333Z,12.49
2018-03-11T00:46:42.290Z,12.49
2018-03-11T00:47:42.305Z,12.54
2018-03-11T00:48:42.507Z,12.54
2018-03-11T00:49:42.167Z,12.55
2018-03-11T00:50:42.128Z,12.54
2018-03-11T00:51:42.079Z,12.58
2018-03-11T00:52:42.043Z,12.63
2018-03-11T00:53:41.994Z,12.66
2018-03-11T00:54:41.953Z,12.74
2018-03-11T00:55:42.211Z,12.74
2018-03-11T00:56:41.869Z,12.71
2018-03-11T00:57:41.830Z,12.66
2018-03-11T00:58:41.784Z,12.62
2018-03-11T00:59:41.746Z,12.61
2018-03-11T01:00:41.700Z,12.61
2018-03-11T01:01:41.657Z,12.62
2018-03-11T01:02:41.914Z,12.67
2018-03-11T01:03:41.622Z,12.73
2018-03-11T01:04:41.535Z,12.73
2018-03-11T01:05:41.488Z,12.73
2018-03-11T01:06:41.448Z,12.69
2018-03-11T01:07:41.433Z,12.71
2018-03-11T01:08:41.362Z,12.73
2018-03-11T01:09:41.621Z,12.59
2018-03-11T01:10:41.280Z,12.62
2018-03-11T01:11:41.235Z,12.62
2018-03-11T01:12:41.194Z,12.73
2018-03-11T01:13:41.150Z,12.73
2018-03-11T01:14:41.114Z,12.79
2018-03-11T01:15:41.083Z,12.73
2018-03-11T01:16:41.343Z,12.76
2018-03-11T01:17:40.981Z,12.77
2018-03-11T01:18:40.944Z,12.73
2018-03-11T01:19:40.905Z,12.79
2018-03-11T01:20:40.859Z,12.76
2018-03-11T01:21:40.814Z,12.70
2018-03-11T01:22:40.771Z,12.69
2018-03-11T01:23:41.030Z,12.61
2018-03-11T01:24:40.689Z,12.67
2018-03-11T01:25:40.645Z,12.63
2018-03-11T01:26:40.604Z,12.62
2018-03-11T01:27:40.565Z,12.73
2018-03-11T01:28:40.523Z,12.73
2018-03-11T01:29:40.488Z,12.71
2018-03-11T01:30:40.837Z,12.73
2018-03-11T01:31:40.394Z,12.74
2018-03-11T01:32:40.354Z,12.71
2018-03-11T01:33:40.309Z,12.74
2018-03-11T01:34:40.271Z,12.73
2018-03-11T01:35:40.230Z,12.67
2018-03-11T01:36:40.583Z,12.67
2018-03-11T01:37:40.147Z,12.71
2018-03-11T01:38:40.099Z,12.62
2018-03-11T01:39:40.057Z,12.69
2018-03-11T01:40:40.015Z,12.70
2018-03-11T01:41:39.971Z,12.61
2018-03-11T01:42:40.483Z,12.56
2018-03-11T01:43:39.888Z,12.55
2018-03-11T01:44:39.853Z,12.59
2018-03-11T01:45:39.808Z,12.58
2018-03-11T01:46:39.761Z,12.52
2018-03-11T01:47:39.720Z,12.49
2018-03-11T01:48:39.980Z,12.54
2018-03-11T01:49:39.636Z,12.54
2018-03-11T01:50:39.595Z,12.61
2018-03-11T01:51:39.563Z,12.67
2018-03-11T01:52:39.513Z,12.54
2018-03-11T01:53:39.472Z,12.52
2018-03-11T01:54:39.727Z,12.52
2018-03-11T01:55:39.384Z,12.54
2018-03-11T01:56:39.352Z,12.40
2018-03-11T01:57:39.298Z,12.43
2018-03-11T01:58:39.259Z,12.48
2018-03-11T01:59:39.216Z,12.44
2018-03-11T02:00:39.476Z,12.41
2018-03-11T02:01:39.134Z,12.46
2018-03-11T02:02:39.103Z,12.41
2018-03-11T02:03:39.053Z,12.44
2018-03-11T02:04:39.008Z,12.48
2018-03-11T02:05:38.961Z,12.38
2018-03-11T02:06:38.921Z,12.43
2018-03-11T02:07:39.179Z,12.41
2018-03-11T02:08:38.841Z,12.43
2018-03-11T02:09:38.796Z,12.41
2018-03-11T02:10:38.756Z,12.48
2018-03-11T02:11:38.715Z,12.43
2018-03-11T02:12:38.671Z,12.48
2018-03-11T02:13:38.628Z,12.37
2018-03-11T02:14:38.887Z,12.34
2018-03-11T02:15:38.544Z,12.40
2018-03-11T02:16:38.507Z,12.37
2018-03-11T02:17:38.460Z,12.49
2018-03-11T02:18:38.420Z,12.41
2018-03-11T02:19:38.375Z,12.52
2018-03-11T02:20:38.334Z,12.51
2018-03-11T02:21:38.600Z,12.44
2018-03-11T02:22:38.250Z,12.46
2018-03-11T02:23:38.207Z,12.44
2018-03-11T02:24:38.166Z,12.37
2018-03-11T02:25:38.129Z,12.48
2018-03-11T02:26:38.093Z,12.46
2018-03-11T02:27:38.045Z,12.48
2018-03-11T02:28:38.300Z,12.48
2018-03-11T02:29:37.957Z,12.38
2018-03-11T02:30:37.917Z,12.44
2018-03-11T02:31:37.879Z,12.33
2018-03-11T02:32:37.831Z,12.31
2018-03-11T02:33:37.840Z,12.38
2018-03-11T02:34:37.757Z,12.30
2018-03-11T02:35:38.012Z,12.25
2018-03-11T02:36:37.664Z,12.19
2018-03-11T02:37:37.624Z,12.19
2018-03-11T02:38:37.584Z,12.21
2018-03-11T02:39:37.586Z,12.29
2018-03-11T02:40:37.496Z,12.34
2018-03-11T02:41:37.453Z,12.19
2018-03-11T02:42:37.711Z,12.19
2018-03-11T02:43:37.375Z,12.23
2018-03-11T02:44:37.343Z,12.22
2018-03-11T02:45:37.443Z,12.16
2018-03-11T02:46:37.251Z,12.11
2018-03-11T02:47:37.218Z,12.08
2018-03-11T02:48:37.468Z,12.05
2018-03-11T02:49:37.125Z,11.94
2018-03-11T02:50:37.085Z,11.93
2018-03-11T02:51:37.041Z,11.87
2018-03-11T02:52:37.010Z,11.78
2018-03-11T02:53:36.956Z,11.77
2018-03-11T02:54:37.226Z,11.66
2018-03-11T02:55:36.873Z,11.51
2018-03-11T02:56:36.831Z,11.51
2018-03-11T02:57:36.794Z,11.45
2018-03-11T02:58:36.747Z,11.45
2018-03-11T02:59:36.706Z,11.41
2018-03-11T03:00:36.965Z,11.26
2018-03-11T03:01:36.622Z,11.27
2018-03-11T03:02:36.578Z,11.17
2018-03-11T03:03:36.542Z,11.01
2018-03-11T03:04:36.495Z,10.98
2018-03-11T03:05:36.452Z,10.72
2018-03-11T03:06:36.710Z,10.60
2018-03-11T03:07:36.371Z,10.65
2018-03-11T03:08:36.325Z,10.68
2018-03-11T03:09:36.281Z,10.62
2018-03-11T03:10:36.239Z,10.60
2018-03-11T03:11:36.197Z,10.55
2018-03-11T03:12:36.470Z,10.39
2018-03-11T03:13:36.116Z,10.42
2018-03-11T03:14:36.120Z,10.31
2018-03-11T03:15:36.059Z,10.29
2018-03-11T03:16:36.030Z,10.26
2018-03-11T03:17:35.943Z,10.29
2018-03-11T03:18:36.201Z,10.22
2018-03-11T03:19:35.858Z,10.16
2018-03-11T03:20:35.816Z,10.11
2018-03-11T03:21:35.772Z,10.04
2018-03-11T03:22:35.731Z,10.01
2018-03-11T03:23:35.692Z,10.04
2018-03-11T03:24:35.645Z,9.93
2018-03-11T03:25:35.900Z,9.95
2018-03-11T03:26:35.757Z,9.89
2018-03-11T03:27:35.514Z,9.83
2018-03-11T03:28:35.478Z,9.85
2018-03-11T03:29:35.430Z,9.80
2018-03-11T03:30:35.389Z,9.77
2018-03-11T03:31:35.352Z,9.71
2018-03-11T03:32:35.652Z,9.83
2018-03-11T03:33:35.262Z,9.75
2018-03-11T03:34:35.216Z,9.68
2018-03-11T03:35:35.172Z,9.63
2018-03-11T03:36:35.134Z,9.71
2018-03-11T03:37:35.090Z,9.62
2018-03-11T03:38:35.096Z,9.60
2018-03-11T03:39:35.298Z,9.52
2018-03-11T03:40:34.957Z,9.41
2018-03-11T03:41:34.913Z,9.41
2018-03-11T03:42:34.873Z,9.27
2018-03-11T03:43:34.827Z,9.26
2018-03-11T03:44:34.785Z,9.24
2018-03-11T03:45:34.745Z,9.13
2018-03-11T03:46:34.997Z,9.16
2018-03-11T03:47:34.657Z,9.16
2018-03-11T03:48:34.615Z,9.04
2018-03-11T03:49:34.568Z,9.01
2018-03-11T03:50:34.523Z,8.96
2018-03-11T03:51:34.481Z,8.93
2018-03-11T03:52:34.437Z,8.80
2018-03-11T03:53:34.692Z,8.78
2018-03-11T03:54:34.350Z,8.78
2018-03-11T03:55:34.311Z,8.73
2018-03-11T03:56:34.276Z,8.73
2018-03-11T03:57:34.224Z,8.65
2018-03-11T03:58:34.178Z,8.65
2018-03-11T03:59:34.432Z,8.54
2018-03-11T04:00:34.088Z,8.63
2018-03-11T04:01:34.046Z,8.76
2018-03-11T04:02:34.002Z,8.80
2018-03-11T04:03:33.959Z,8.82
2018-03-11T04:04:33.915Z,8.78
2018-03-11T04:05:34.171Z,8.91
2018-03-11T04:06:33.827Z,8.78
2018-03-11T04:07:33.782Z,8.93
2018-03-11T04:08:33.739Z,8.88
2018-03-11T04:09:33.748Z,8.89
2018-03-11T04:10:33.654Z,8.78
2018-03-11T04:11:33.910Z,8.80
2018-03-11T04:12:33.564Z,8.88
2018-03-11T04:13:33.526Z,8.76
2018-03-11T04:14:33.478Z,8.68
2018-03-11T04:15:33.534Z,8.79
2018-03-11T04:16:33.388Z,8.79
2018-03-11T04:17:33.644Z,8.78
2018-03-11T04:18:33.302Z,8.80
2018-03-11T04:19:33.258Z,8.78
2018-03-11T04:20:33.222Z,8.85
2018-03-11T04:21:33.171Z,8.80
2018-03-11T04:22:33.132Z,8.79
2018-03-11T04:23:33.386Z,8.80
2018-03-11T04:24:33.039Z,8.71
2018-03-11T04:25:32.995Z,8.67
2018-03-11T04:26:32.951Z,8.75
2018-03-11T04:27:32.913Z,8.83
2018-03-11T04:28:32.864Z,8.91
2018-03-11T04:29:33.121Z,8.85
2018-03-11T04:30:32.787Z,8.76
2018-03-11T04:31:32.734Z,8.75
2018-03-11T04:32:32.688Z,8.76
2018-03-11T04:33:32.670Z,8.78
2018-03-11T04:34:32.600Z,8.67
2018-03-11T04:35:32.557Z,8.67
2018-03-11T04:36:32.812Z,8.57
2018-03-11T04:37:32.466Z,8.55
2018-03-11T04:38:32.430Z,8.60
2018-03-11T04:39:32.381Z,8.47
2018-03-11T04:40:32.338Z,8.39
2018-03-11T04:41:32.291Z,8.40
2018-03-11T04:42:32.298Z,8.47
2018-03-11T04:43:32.509Z,8.57
2018-03-11T04:44:32.163Z,8.49
2018-03-11T04:45:32.114Z,8.46
2018-03-11T04:46:32.077Z,8.46
2018-03-11T04:47:32.029Z,8.57
2018-03-11T04:48:32.041Z,8.54
2018-03-11T04:49:31.941Z,8.64
2018-03-11T04:50:32.199Z,8.70
2018-03-11T04:51:31.854Z,8.67
2018-03-11T04:52:31.810Z,8.70
2018-03-11T04:53:31.762Z,8.67
2018-03-11T04:54:31.718Z,8.67
2018-03-11T04:55:31.675Z,8.75
2018-03-11T04:56:31.634Z,8.54
2018-03-11T04:57:31.886Z,8.61
2018-03-11T04:58:31.542Z,8.58
2018-03-11T04:59:31.502Z,8.54
2018-03-11T05:00:31.455Z,8.54
2018-03-11T05:01:31.413Z,8.37
2018-03-11T05:02:31.367Z,8.37
2018-03-11T05:03:31.323Z,8.54
2018-03-11T05:04:31.581Z,8.65
2018-03-11T05:05:31.234Z,8.68
2018-03-11T05:06:31.240Z,8.68
2018-03-11T05:07:31.148Z,8.58
2018-03-11T05:08:31.103Z,8.50
2018-03-11T05:09:31.059Z,8.49
2018-03-11T05:10:31.312Z,8.49
2018-03-11T05:11:30.969Z,8.47
2018-03-11T05:12:30.924Z,8.46
2018-03-11T05:13:30.885Z,8.36
2018-03-11T05:14:31.037Z,8.32
2018-03-11T05:15:30.792Z,8.29
2018-03-11T05:16:31.051Z,8.27
2018-03-11T05:17:30.753Z,8.24
2018-03-11T05:18:30.665Z,8.22
2018-03-11T05:19:30.614Z,8.12
2018-03-11T05:20:30.725Z,8.17
2018-03-11T05:21:30.531Z,8.21
2018-03-11T05:22:30.784Z,8.22
2018-03-11T05:23:30.438Z,8.06
2018-03-11T05:24:30.396Z,8.00
2018-03-11T05:25:30.349Z,7.85
2018-03-11T05:26:30.314Z,7.85
2018-03-11T05:27:30.264Z,7.96
2018-03-11T05:28:30.525Z,7.96
2018-03-11T05:29:30.175Z,7.86
2018-03-11T05:30:30.130Z,8.04
2018-03-11T05:31:30.141Z,7.91
2018-03-11T05:32:30.041Z,7.94
2018-03-11T05:33:29.998Z,7.94
2018-03-11T05:34:30.251Z,7.85
2018-03-11T05:35:29.907Z,7.69
2018-03-11T05:36:29.862Z,7.70
2018-03-11T05:37:29.819Z,7.82
2018-03-11T05:38:29.773Z,7.91
2018-03-11T05:39:29.747Z,7.82
2018-03-11T05:40:29.986Z,7.73
2018-03-11T05:41:29.643Z,7.69
2018-03-11T05:42:29.601Z,7.62
2018-03-11T05:43:29.550Z,7.67
2018-03-11T05:44:29.520Z,7.94
2018-03-11T05:45:29.467Z,8.09
2018-03-11T05:46:29.419Z,8.03
2018-03-11T05:47:29.673Z,8.18
2018-03-11T05:48:29.337Z,8.10
2018-03-11T05:49:29.284Z,8.07
2018-03-11T05:50:29.240Z,8.04
2018-03-11T05:51:29.196Z,8.02
2018-03-11T05:52:29.158Z,8.03
2018-03-11T05:53:29.162Z,8.02
2018-03-11T05:54:29.363Z,7.99
2018-03-11T05:55:29.016Z,8.03
2018-03-11T05:56:28.971Z,8.10
2018-03-11T05:57:28.928Z,8.12
2018-03-11T05:58:28.886Z,8.00
2018-03-11T05:59:28.838Z,7.94
2018-03-11T06:00:28.804Z,7.91
2018-03-11T06:01:29.048Z,7.82
2018-03-11T06:02:28.714Z,7.77
2018-03-11T06:03:28.666Z,7.74
2018-03-11T06:04:28.621Z,7.73
2018-03-11T06:05:28.570Z,7.70
2018-03-11T06:06:28.525Z,7.70
2018-03-11T06:07:28.532Z,7.89
2018-03-11T06:08:28.737Z,8.03
2018-03-11T06:09:28.392Z,8.00
2018-03-11T06:10:28.355Z,8.04
2018-03-11T06:11:28.310Z,8.02
2018-03-11T06:12:28.259Z,7.95
2018-03-11T06:13:28.265Z,8.10
2018-03-11T06:14:28.169Z,8.20
2018-03-11T06:15:28.426Z,8.29
2018-03-11T06:16:28.082Z,8.43
2018-03-11T06:17:28.037Z,8.49
2018-03-11T06:18:27.993Z,8.58
2018-03-11T06:19:27.951Z,8.73
2018-03-11T06:20:27.910Z,8.83
2018-03-11T06:21:28.158Z,8.88
2018-03-11T06:22:27.820Z,8.88
2018-03-11T06:23:27.773Z,8.88
2018-03-11T06:24:27.726Z,8.97
2018-03-11T06:25:27.682Z,9.10
2018-03-11T06:26:27.675Z,9.16
2018-03-11T06:27:27.895Z,9.31
2018-03-11T06:28:27.550Z,9.41
2018-03-11T06:29:27.509Z,9.45
2018-03-11T06:30:27.461Z,9.59
2018-03-11T06:31:27.419Z,9.68
2018-03-11T06:32:27.430Z,9.78
2018-03-11T06:33:27.634Z,9.77
2018-03-11T06:34:27.286Z,9.86
2018-03-11T06:35:27.242Z,9.92
2018-03-11T06:36:27.208Z,9.92
2018-03-11T06:37:27.155Z,10.01
2018-03-11T06:38:27.110Z,10.10
2018-03-11T06:39:27.366Z,10.22
2018-03-11T06:40:27.031Z,10.22
2018-03-11T06:41:26.977Z,10.26
2018-03-11T06:42:26.936Z,10.29
2018-03-11T06:43:26.893Z,10.36
2018-03-11T06:44:26.850Z,10.38
2018-03-11T06:45:27.105Z,10.51
2018-03-11T06:46:26.765Z,10.54
2018-03-11T06:47:27.716Z,10.52
2018-03-11T06:48:26.861Z,10.49
2018-03-11T06:49:26.815Z,10.52
2018-03-11T06:50:26.871Z,10.60
2018-03-11T06:51:27.051Z,10.60
2018-03-11T06:52:26.636Z,10.63
2018-03-11T06:53:26.842Z,10.68
2018-03-11T06:54:26.811Z,10.65
2018-03-11T06:55:26.587Z,10.68
2018-03-11T06:56:26.441Z,10.70
2018-03-11T06:57:26.446Z,10.81
2018-03-11T06:58:26.723Z,10.90
2018-03-11T06:59:26.295Z,10.87
2018-03-11T07:00:26.157Z,10.93
2018-03-11T07:01:26.113Z,10.95
2018-03-11T07:02:26.075Z,10.99
2018-03-11T07:03:26.037Z,10.90
2018-03-11T07:04:25.987Z,11.01
2018-03-11T07:05:26.242Z,11.03
2018-03-11T07:06:25.899Z,11.16
2018-03-11T07:07:25.856Z,11.12
2018-03-11T07:08:25.814Z,11.11
2018-03-11T07:09:25.780Z,11.26
2018-03-11T07:10:25.729Z,11.20
2018-03-11T07:11:25.684Z,11.24
2018-03-11T07:12:25.973Z,11.35
2018-03-11T07:13:25.600Z,11.27
2018-03-11T07:14:25.564Z,11.26
2018-03-11T07:15:25.516Z,11.39
2018-03-11T07:16:25.474Z,11.45
2018-03-11T07:17:25.437Z,11.42
2018-03-11T07:18:25.389Z,11.54
2018-03-11T07:19:25.644Z,11.51
2018-03-11T07:20:25.304Z,11.53
2018-03-11T07:21:25.259Z,11.51
2018-03-11T07:22:25.219Z,11.57
2018-03-11T07:23:25.197Z,11.69
2018-03-11T07:24:25.134Z,11.81
2018-03-11T07:25:25.092Z,11.87
2018-03-11T07:26:25.350Z,12.18
2018-03-11T07:27:25.008Z,12.23
2018-03-11T07:28:24.971Z,12.40
2018-03-11T07:29:24.924Z,12.36
2018-03-11T07:30:24.884Z,12.49
2018-03-11T07:31:24.845Z,12.63
2018-03-11T07:32:24.815Z,12.70
2018-03-11T07:33:25.061Z,12.63
2018-03-11T07:34:24.715Z,12.46
2018-03-11T07:35:24.670Z,12.62
2018-03-11T07:36:24.631Z,12.77
2018-03-11T07:37:24.588Z,12.73
2018-03-11T07:38:24.546Z,12.95
2018-03-11T07:39:24.808Z,12.92
2018-03-11T07:40:24.515Z,12.94
2018-03-11T07:41:24.434Z,12.77
2018-03-11T07:42:24.388Z,12.79
2018-03-11T07:43:24.346Z,12.80
2018-03-11T07:44:24.300Z,12.89
2018-03-11T07:45:24.560Z,13.01
2018-03-11T07:46:24.267Z,13.06
2018-03-11T07:47:24.178Z,13.03
2018-03-11T07:48:24.140Z,13.12
2018-03-11T07:49:24.100Z,13.27
2018-03-11T07:50:24.055Z,13.27
2018-03-11T07:51:24.314Z,13.53
2018-03-11T07:52:23.980Z,13.53
2018-03-11T07:53:23.934Z,13.39
2018-03-11T07:54:23.893Z,13.35
2018-03-11T07:55:23.853Z,13.19
2018-03-11T07:56:23.821Z,12.79
2018-03-11T07:57:24.073Z,12.87
2018-03-11T07:58:23.736Z,12.87
2018-03-11T07:59:23.691Z,13.22
2018-03-11T08:00:23.651Z,13.55
2018-03-11T08:01:23.610Z,13.79
2018-03-11T08:02:23.569Z,13.50
2018-03-11T08:03:23.830Z,13.17
2018-03-11T08:04:23.489Z,12.92
2018-03-11T08:05:23.449Z,12.87
2018-03-11T08:06:23.414Z,13.10
2018-03-11T08:07:23.367Z,12.94
2018-03-11T08:08:23.332Z,12.81
2018-03-11T08:09:23.286Z,12.67
2018-03-11T08:10:23.545Z,12.76
2018-03-11T08:11:23.205Z,12.77
2018-03-11T08:12:23.221Z,12.80
2018-03-11T08:13:23.124Z,13.43
2018-03-11T08:14:23.094Z,13.72
2018-03-11T08:15:23.047Z,14.31
2018-03-11T08:16:23.005Z,14.59
2018-03-11T08:17:23.270Z,14.53
2018-03-11T08:18:22.926Z,14.69
2018-03-11T08:19:22.882Z,14.90
2018-03-11T08:20:22.846Z,15.16
2018-03-11T08:21:22.803Z,16.01
2018-03-11T08:22:22.762Z,16.26
2018-03-11T08:23:22.723Z,16.72
2018-03-11T08:24:22.985Z,16.73
2018-03-11T08:25:22.645Z,16.72
2018-03-11T08:26:22.617Z,17.12
2018-03-11T08:27:22.571Z,16.72
2018-03-11T08:28:22.534Z,15.95
2018-03-11T08:29:22.494Z,15.60
2018-03-11T08:30:22.455Z,15.20
2018-03-11T08:31:22.819Z,14.95
2018-03-11T08:32:22.382Z,14.59
2018-03-11T08:33:22.345Z,14.39
2018-03-11T08:34:22.309Z,14.34
2018-03-11T08:35:22.268Z,14.11
2018-03-11T08:36:22.432Z,14.08
2018-03-11T08:37:22.190Z,14.13
2018-03-11T08:38:22.457Z,13.86
2018-03-11T08:39:22.115Z,13.73
2018-03-11T08:40:22.080Z,13.75
2018-03-11T08:41:22.041Z,13.79
2018-03-11T08:42:22.048Z,13.62
2018-03-11T08:43:21.961Z,13.68
2018-03-11T08:44:21.930Z,13.61
2018-03-11T08:45:22.184Z,13.63
2018-03-11T08:46:22.042Z,13.65
2018-03-11T08:47:21.858Z,13.73
2018-03-11T08:48:21.798Z,13.61
2018-03-11T08:49:21.722Z,13.57
2018-03-11T08:50:21.687Z,13.55
2018-03-11T08:51:22.043Z,13.53
2018-03-11T08:52:21.602Z,13.55
2018-03-11T08:53:21.560Z,13.53
2018-03-11T08:54:21.571Z,13.51
2018-03-11T08:55:21.483Z,13.46
2018-03-11T08:56:21.692Z,13.44
2018-03-11T08:57:21.697Z,13.50
2018-03-11T08:58:21.358Z,13.47
2018-03-11T08:59:21.341Z,13.41
2018-03-11T09:00:21.281Z,13.41
2018-03-11T09:01:21.293Z,13.39
2018-03-11T09:02:21.196Z,13.35
2018-03-11T09:03:21.455Z,13.36
2018-03-11T09:04:21.366Z,13.32
2018-03-11T09:05:21.080Z,13.36
2018-03-11T09:06:21.035Z,13.36
2018-03-11T09:07:20.991Z,13.36
2018-03-11T09:08:20.950Z,13.41
2018-03-11T09:09:21.208Z,13.50
2018-03-11T09:10:20.897Z,13.41
2018-03-11T09:11:20.880Z,13.43
2018-03-11T09:12:20.988Z,13.38
2018-03-11T09:13:20.745Z,13.38
2018-03-11T09:14:20.753Z,13.51
2018-03-11T09:15:20.963Z,13.54
2018-03-11T09:16:20.671Z,13.38
2018-03-11T09:17:20.628Z,13.47
2018-03-11T09:18:20.539Z,13.44
2018-03-11T09:19:20.558Z,13.62
2018-03-11T09:20:20.461Z,13.59
2018-03-11T09:21:20.462Z,13.59
2018-03-11T09:22:20.728Z,13.63
2018-03-11T09:23:20.336Z,13.76
2018-03-11T09:24:20.298Z,13.73
2018-03-11T09:25:20.253Z,13.90
2018-03-11T09:26:20.210Z,13.93
2018-03-11T09:27:20.223Z,13.76
2018-03-11T09:28:20.140Z,13.84
2018-03-11T09:29:20.387Z,13.80
2018-03-11T09:30:20.052Z,13.72
2018-03-11T09:31:20.053Z,13.73
2018-03-11T09:32:20.015Z,13.69
2018-03-11T09:33:19.923Z,13.62
2018-03-11T09:34:19.886Z,13.66
2018-03-11T09:35:19.847Z,13.55
2018-03-11T09:36:20.098Z,13.53
2018-03-11T09:37:19.765Z,13.51
2018-03-11T09:38:19.769Z,13.54
2018-03-11T09:39:19.824Z,13.48
2018-03-11T09:40:19.708Z,13.50
2018-03-11T09:41:19.593Z,13.43
2018-03-11T09:42:19.575Z,13.47
2018-03-11T09:43:19.822Z,13.51
2018-03-11T09:44:19.471Z,13.39
2018-03-11T09:45:19.532Z,13.38
2018-03-11T09:46:19.388Z,13.36
2018-03-11T09:47:19.347Z,13.39
2018-03-11T09:48:19.310Z,13.35
2018-03-11T09:49:19.314Z,13.38
2018-03-11T09:50:19.526Z,13.31
2018-03-11T09:51:19.236Z,13.31
2018-03-11T09:52:19.293Z,13.35
2018-03-11T09:53:19.101Z,13.27
2018-03-11T09:54:19.107Z,13.36
2018-03-11T09:55:19.067Z,13.39
2018-03-11T09:56:19.028Z,13.39
2018-03-11T09:57:19.282Z,13.51
2018-03-11T09:58:18.890Z,13.48
2018-03-11T09:59:18.900Z,13.62
2018-03-11T10:00:18.861Z,13.66
2018-03-11T10:01:18.969Z,13.71
2018-03-11T10:02:18.800Z,13.65
2018-03-11T10:03:18.991Z,13.84
2018-03-11T10:04:18.799Z,13.94
2018-03-11T10:05:18.652Z,13.99
2018-03-11T10:06:18.566Z,13.98
2018-03-11T10:07:18.571Z,14.16
2018-03-11T10:08:18.486Z,14.17
2018-03-11T10:09:18.741Z,14.16
2018-03-11T10:10:18.499Z,14.53
2018-03-11T10:11:18.362Z,14.74
2018-03-11T10:12:18.321Z,14.83
2018-03-11T10:13:18.276Z,14.90
2018-03-11T10:14:18.341Z,14.95
2018-03-11T10:15:18.494Z,14.95
2018-03-11T10:16:18.376Z,14.87
2018-03-11T10:17:18.316Z,14.93
2018-03-11T10:18:18.073Z,14.94
2018-03-11T10:19:18.081Z,14.83
2018-03-11T10:20:18.045Z,14.83
2018-03-11T10:21:18.300Z,14.80
2018-03-11T10:22:17.960Z,14.80
2018-03-11T10:23:17.869Z,14.91
2018-03-11T10:24:17.930Z,14.80
2018-03-11T10:25:17.843Z,14.79
2018-03-11T10:26:17.798Z,14.86
2018-03-11T10:27:18.058Z,14.97
2018-03-11T10:28:17.672Z,14.91
2018-03-11T10:29:17.675Z,14.94
2018-03-11T10:30:17.641Z,14.93
2018-03-11T10:31:17.596Z,15.01
2018-03-11T10:32:17.662Z,14.93
2018-03-11T10:33:17.770Z,14.94
2018-03-11T10:34:17.474Z,14.95
2018-03-11T10:35:17.533Z,14.91
2018-03-11T10:36:17.346Z,14.95
2018-03-11T10:37:17.506Z,14.98
2018-03-11T10:38:17.359Z,14.93
2018-03-11T10:39:17.279Z,14.94
2018-03-11T10:40:17.548Z,14.98
2018-03-11T10:41:17.142Z,15.01
2018-03-11T10:42:17.165Z,15.09
2018-03-11T10:43:17.068Z,15.12
2018-03-11T10:44:17.226Z,15.19
2018-03-11T10:45:17.131Z,15.31
2018-03-11T10:46:16.990Z,15.34
2018-03-11T10:47:17.352Z,15.40
2018-03-11T10:48:16.861Z,15.27
2018-03-11T10:49:16.871Z,15.19
2018-03-11T10:50:16.834Z,15.27
2018-03-11T10:51:16.742Z,15.35
2018-03-11T10:52:17.003Z,15.35
2018-03-11T10:53:16.665Z,15.31
2018-03-11T10:54:16.970Z,15.37
2018-03-11T10:55:16.633Z,15.34
2018-03-11T10:56:16.841Z,15.33
2018-03-11T10:57:16.550Z,15.38
2018-03-11T10:58:16.462Z,15.28
2018-03-11T10:59:16.422Z,15.20
2018-03-11T11:00:16.437Z,15.20
2018-03-11T11:01:16.776Z,15.28
2018-03-11T11:02:16.388Z,15.20
2018-03-11T11:03:16.331Z,15.16
2018-03-11T11:04:16.455Z,15.05
2018-03-11T11:05:16.362Z,15.09
2018-03-11T11:06:16.171Z,15.11
2018-03-11T11:07:16.153Z,15.13
2018-03-11T11:08:16.362Z,15.15
2018-03-11T11:09:16.072Z,15.19
2018-03-11T11:10:16.040Z,15.22
2018-03-11T11:11:15.940Z,15.35
2018-03-11T11:12:15.949Z,15.43
2018-03-11T11:13:15.859Z,15.64
2018-03-11T11:14:16.173Z,15.70
2018-03-11T11:15:15.991Z,15.64
2018-03-11T11:16:15.741Z,15.68
2018-03-11T11:17:15.696Z,15.73
2018-03-11T11:18:15.658Z,15.66
2018-03-11T11:19:15.678Z,15.58
2018-03-11T11:20:15.927Z,15.60
2018-03-11T11:21:15.545Z,15.62
2018-03-11T11:22:15.557Z,15.71
2018-03-11T11:23:15.510Z,15.68
2018-03-11T11:24:15.479Z,15.66
2018-03-11T11:25:15.440Z,15.74
2018-03-11T11:26:15.662Z,15.71
2018-03-11T11:27:15.348Z,15.77
2018-03-11T11:28:15.311Z,15.91
2018-03-11T11:29:15.269Z,15.98
2018-03-11T11:30:15.184Z,16.01
2018-03-11T11:31:15.213Z,15.99
2018-03-11T11:32:15.447Z,16.11
2018-03-11T11:33:15.107Z,16.08
2018-03-11T11:34:15.077Z,16.18
2018-03-11T11:35:15.133Z,16.25
2018-03-11T11:36:14.939Z,16.22
2018-03-11T11:37:14.945Z,16.50
2018-03-11T11:38:15.157Z,16.62
2018-03-11T11:39:14.867Z,16.95
2018-03-11T11:40:14.833Z,17.18
2018-03-11T11:41:14.740Z,17.05
2018-03-11T11:42:14.748Z,17.32
2018-03-11T11:43:14.710Z,17.40
2018-03-11T11:44:14.983Z,17.65
2018-03-11T11:45:14.632Z,18.32
2018-03-11T11:46:14.543Z,19.64
2018-03-11T11:47:14.554Z,20.26
2018-03-11T11:48:14.527Z,20.97
2018-03-11T11:49:14.481Z,20.90
2018-03-11T11:50:14.443Z,20.85
2018-03-11T11:51:14.660Z,20.42
2018-03-11T11:52:14.382Z,19.78
2018-03-11T11:53:14.336Z,19.49
2018-03-11T11:54:14.301Z,19.43
2018-03-11T11:55:14.313Z,19.71
2018-03-11T11:56:14.199Z,20.20
2018-03-11T11:57:14.204Z,19.80
2018-03-11T11:58:14.462Z,19.15
2018-03-11T11:59:14.288Z,19.68
2018-03-11T12:00:14.095Z,20.27
2018-03-11T12:01:14.014Z,20.87
2018-03-11T12:02:14.030Z,20.68
2018-03-11T12:03:14.001Z,19.97
2018-03-11T12:04:14.113Z,20.33
2018-03-11T12:05:14.428Z,19.89
2018-03-11T12:06:13.846Z,19.42
2018-03-11T12:07:13.965Z,18.82
2018-03-11T12:08:13.879Z,18.79
2018-03-11T12:09:14.098Z,19.07
2018-03-11T12:10:13.775Z,18.87
2018-03-11T12:11:13.689Z,18.90
2018-03-11T12:12:14.060Z,19.15
2018-03-11T12:13:13.663Z,19.25
2018-03-11T12:14:13.584Z,19.32
2018-03-11T12:15:13.595Z,19.78
2018-03-11T12:16:13.518Z,19.76
2018-03-11T12:17:13.529Z,19.47
2018-03-11T12:18:13.589Z,19.85
2018-03-11T12:19:13.809Z,19.94
2018-03-11T12:20:13.427Z,19.90
2018-03-11T12:21:13.341Z,20.44
2018-03-11T12:22:13.353Z,20.91
2018-03-11T12:23:13.319Z,20.91
2018-03-11T12:24:13.237Z,20.94
2018-03-11T12:25:13.265Z,20.76
2018-03-11T12:26:13.471Z,20.64
2018-03-11T12:27:13.187Z,20.34
2018-03-11T12:28:13.108Z,19.78
2018-03-11T12:29:13.073Z,19.30
2018-03-11T12:30:13.038Z,18.89
2018-03-11T12:31:13.001Z,19.01
2018-03-11T12:32:13.275Z,18.79
2018-03-11T12:33:13.083Z,18.72
2018-03-11T12:34:12.977Z,18.75
2018-03-11T12:35:12.919Z,19.09
2018-03-11T12:36:12.836Z,19.25
2018-03-11T12:37:12.898Z,19.07
2018-03-11T12:38:13.113Z,18.84
2018-03-11T12:39:12.732Z,18.97
2018-03-11T12:40:12.742Z,18.97
2018-03-11T12:41:12.659Z,19.06
2018-03-11T12:42:12.672Z,19.15
2018-03-11T12:43:12.638Z,18.93
2018-03-11T12:44:12.850Z,18.90
2018-03-11T12:45:12.718Z,18.91
2018-03-11T12:46:12.478Z,18.79
2018-03-11T12:47:12.643Z,18.68
2018-03-11T12:48:12.460Z,18.29
2018-03-11T12:49:12.380Z,18.31
2018-03-11T12:50:12.689Z,18.21
2018-03-11T12:51:12.299Z,18.23
2018-03-11T12:52:12.318Z,18.20
2018-03-11T12:53:12.329Z,18.16
2018-03-11T12:54:12.196Z,18.05
2018-03-11T12:55:12.303Z,18.01
2018-03-11T12:56:12.116Z,17.94
2018-03-11T12:57:12.133Z,17.80
2018-03-11T12:58:12.242Z,17.87